Portada
METAR-TAF:

METAR-TAF

Aeropuertos :

Aeropuerto Internacional General José Antonio Anzoátegui

Barcelona, Venezuela

latitud: 10-07N, longitud: 064-41W, altitud: 7 m

Observación

El informe se hizo hace 3 horas y 6 minutos, a las 14:00 UTC
Temperatura 31°C
Humedad 63%
Presión 1014 hPa
Visibilidad 10 km o más
Escasas nubes a una altura de 1300 ft
Nubes dispersas a una altura de 8000 ft
calima

METAR: SVBC 251400Z /////KT 9999 HZ FEW013 SCT080 31/23 Q1014

Hora: 13:06 (17:06 UTC)

Pronóstico

El informe se hizo hace 7 horas y 6 minutos, a las 10:00 UTC
Pronóstico válido del 25 a las 12 UTC al 26 a las 12 UTC
Viento 15 kt del este
Visibilidad 10 km o más
Escasas nubes a una altura de 1000 ft
Evolucionando progresivamente
del 25 a las 12 UTC al 25 a las 16 UTC
Viento kt del norte
Visibilidad 10 km o más
sin nubes por debajo de 1500 m y sin presencia de cumulonimbus.

TAF: SVBC 251000Z 2512/2612 09015KT 9999 FEW010 TX35/20Z TN25/11Z BECMG 2512/2516 00000KT CAVOK

Observaciones y pronósticos meteorológicos de más de 4000 aeropuertos (mensajes METAR y TAF).

Los puntos amarillos y rojos representan las estaciones disponibles.

Ponga el ratón en el punto deseado para ver el nombre de la estación.

Haga clic para ver las observaciones y los pronósticos meteorológicos.

Para cambiar el mapa : haga clic en los botones verdes con una cruz de color negro para hacer un zoom, en el botón verde con un guión para alejar o en las flechas verdes para mapas adyacentes.


METAR-TAF: